Time;durP1;ratioP1;P1;durP2;ratioP2;P2;SDS_P1;SDS_P2;PMS_P1;PMS_P2;Temp;Humidity;BMP_temperature;BMP_pressure;BME280_temperature;BME280_humidity;BME280_pressure;Samples;Min_cycle;Max_cycle;Signal;HPM_P1;HPM_P2
2023/01/28 00:00:05;;;;;;;5.28;3.65;;;;;;;0.71;100.00;103048.31;4976429;28;20042;-74
2023/01/28 00:02:32;;;;;;;6.20;3.75;;;;;;;0.72;100.00;103054.44;4977202;28;20036;-74
2023/01/28 00:04:57;;;;;;;6.07;4.50;;;;;;;0.72;100.00;103054.44;4978154;28;20067;-74
2023/01/28 00:07:23;;;;;;;4.55;4.00;;;;;;;0.72;100.00;103063.16;4975435;28;20045;-74
2023/01/28 00:09:49;;;;;;;5.40;3.95;;;;;;;0.72;100.00;103057.03;4974036;28;20124;-74
2023/01/28 00:12:15;;;;;;;4.18;3.40;;;;;;;0.74;100.00;103055.34;5003116;28;20038;-74
2023/01/28 00:14:40;;;;;;;5.07;3.63;;;;;;;0.74;100.00;103058.84;4978267;28;20500;-74
2023/01/28 00:17:06;;;;;;;5.45;4.05;;;;;;;0.74;100.00;103057.97;4973330;28;20485;-74
2023/01/28 00:19:31;;;;;;;4.55;3.58;;;;;;;0.73;100.00;103051.88;4969315;28;20496;-74
2023/01/28 00:21:57;;;;;;;4.88;3.72;;;;;;;0.75;100.00;103054.50;4961823;28;20136;-74
2023/01/28 00:24:22;;;;;;;4.97;4.35;;;;;;;0.75;100.00;103062.34;4973392;28;20100;-74
2023/01/28 00:26:48;;;;;;;5.55;3.88;;;;;;;0.74;100.00;103052.75;4975725;28;20119;-74
2023/01/28 00:29:13;;;;;;;4.55;4.00;;;;;;;0.75;100.00;103054.50;4990677;28;20042;-74
2023/01/28 00:31:40;;;;;;;5.55;4.20;;;;;;;0.75;100.00;103051.91;4978105;28;20045;-74
2023/01/28 00:34:05;;;;;;;4.35;3.75;;;;;;;0.75;100.00;103046.69;4975708;28;20041;-74
2023/01/28 00:36:32;;;;;;;5.18;3.85;;;;;;;0.74;100.00;103044.91;4979220;28;20033;-74
2023/01/28 00:38:58;;;;;;;5.45;4.20;;;;;;;0.74;100.00;103038.00;5009259;28;20038;-74
2023/01/28 00:41:27;;;;;;;5.55;3.75;;;;;;;0.73;100.00;103038.84;4980759;28;20366;-74
2023/01/28 00:43:53;;;;;;;4.55;3.70;;;;;;;0.73;100.00;103032.72;4981836;28;20038;-74
2023/01/28 00:46:20;;;;;;;4.60;3.47;;;;;;;0.73;100.00;103030.13;4978512;28;20058;-74
2023/01/28 00:48:46;;;;;;;5.80;4.35;;;;;;;0.74;100.00;103034.50;5009008;28;20066;-74
2023/01/28 00:51:13;;;;;;;5.13;4.00;;;;;;;0.74;100.00;103032.78;4995240;28;20515;-74
2023/01/28 00:53:38;;;;;;;4.50;3.63;;;;;;;0.74;100.00;103030.16;5010111;28;20065;-74
2023/01/28 00:56:06;;;;;;;5.38;3.60;;;;;;;0.74;100.00;103031.88;5004073;28;20709;-74
2023/01/28 00:58:32;;;;;;;4.07;3.67;;;;;;;0.75;100.00;103036.25;4988889;28;20084;-74
2023/01/28 01:01:08;;;;;;;5.30;3.55;;;;;;;0.73;100.00;103031.00;4980427;28;20149;-74
2023/01/28 01:03:33;;;;;;;4.40;3.88;;;;;;;0.73;100.00;103032.72;4978411;28;20042;-74
2023/01/28 01:05:59;;;;;;;4.90;3.92;;;;;;;0.72;100.00;103025.75;4989813;28;20405;-74
2023/01/28 01:08:33;;;;;;;4.22;3.53;;;;;;;0.71;100.00;103019.63;4970353;28;20130;-74
2023/01/28 01:11:02;;;;;;;6.30;4.07;;;;;;;0.73;100.00;103022.28;4971861;28;20112;-74
2023/01/28 01:13:29;;;;;;;4.32;3.33;;;;;;;0.73;100.00;103022.28;4975736;28;20099;-73
2023/01/28 01:16:12;;;;;;;4.13;3.70;;;;;;;0.75;100.00;103031.03;4972514;28;20118;-73
2023/01/28 01:18:40;;;;;;;4.90;4.15;;;;;;;0.73;100.00;103031.00;4954324;28;20482;-73
2023/01/28 01:21:11;;;;;;;5.03;3.20;;;;;;;0.73;100.00;103030.13;4975537;28;20420;-73
2023/01/28 01:23:37;;;;;;;5.05;3.63;;;;;;;0.73;100.00;103040.53;4977277;28;20068;-73
2023/01/28 01:26:04;;;;;;;7.72;3.90;;;;;;;0.76;100.00;103038.03;4970953;28;20033;-72
2023/01/28 01:28:29;;;;;;;7.00;3.72;;;;;;;0.75;100.00;103041.47;4970409;28;20398;-72
2023/01/28 01:31:03;;;;;;;4.15;3.45;;;;;;;0.76;100.00;103038.03;4977789;28;20052;-72
2023/01/28 01:33:29;;;;;;;4.35;3.47;;;;;;;0.76;100.00;103030.22;4977658;28;20042;-73
2023/01/28 01:35:55;;;;;;;3.95;2.88;;;;;;;0.75;100.00;103037.16;4977754;28;20476;-72
2023/01/28 01:38:20;;;;;;;3.30;3.00;;;;;;;0.75;100.00;103034.53;4982511;28;22437;-72
2023/01/28 01:40:46;;;;;;;6.15;3.53;;;;;;;0.75;100.00;103031.03;4972107;28;20136;-73
2023/01/28 01:43:20;;;;;;;4.75;3.45;;;;;;;0.77;100.00;103043.28;4974618;28;20209;-72
2023/01/28 01:45:49;;;;;;;4.10;3.60;;;;;;;0.76;100.00;103040.66;4974037;28;20041;-72
2023/01/28 01:48:30;;;;;;;5.13;3.58;;;;;;;0.76;100.00;103040.66;4971437;28;20560;-72
2023/01/28 01:51:03;;;;;;;6.10;3.33;;;;;;;0.75;100.00;103047.59;4971534;28;20118;-72
2023/01/28 01:53:29;;;;;;;4.13;3.50;;;;;;;0.78;100.00;103052.00;4988145;28;20688;-73
2023/01/28 01:55:59;;;;;;;3.75;3.10;;;;;;;0.77;100.00;103055.47;4972746;28;20288;-73
2023/01/28 01:58:27;;;;;;;3.83;3.30;;;;;;;0.76;100.00;103058.91;5000369;28;20628;-73
2023/01/28 02:00:53;;;;;;;3.97;3.35;;;;;;;0.75;100.00;103044.06;4971162;28;20034;-72
2023/01/28 02:03:25;;;;;;;5.15;3.75;;;;;;;0.75;100.00;103049.28;4974873;28;20045;-73
2023/01/28 02:05:50;;;;;;;3.75;3.33;;;;;;;0.74;100.00;103055.34;4977930;28;20014;-73
2023/01/28 02:08:22;;;;;;;3.75;3.35;;;;;;;0.76;100.00;103043.25;4978068;28;20567;-72
2023/01/28 02:10:51;;;;;;;4.70;3.67;;;;;;;0.75;100.00;103058.00;4975842;28;20456;-72
2023/01/28 02:13:18;;;;;;;3.47;3.10;;;;;;;0.77;100.00;103055.47;4981390;28;21229;-72
2023/01/28 02:15:45;;;;;;;4.75;3.55;;;;;;;0.75;100.00;103055.41;5006390;28;20375;-73
2023/01/28 02:18:10;;;;;;;5.30;3.60;;;;;;;0.77;100.00;103052.84;4990994;28;20064;-72
2023/01/28 02:20:57;;;;;;;5.55;4.03;;;;;;;0.78;100.00;103052.00;4994051;28;20591;-73
2023/01/28 02:23:50;;;;;;;3.55;2.63;;;;;;;0.77;100.00;103051.13;4982132;28;20623;-73
2023/01/28 02:26:31;;;;;;;3.55;3.05;;;;;;;0.77;100.00;103048.50;5009940;28;20034;-74
2023/01/28 02:29:15;;;;;;;3.17;2.75;;;;;;;0.78;100.00;103049.41;4983174;28;20245;-72
2023/01/28 02:32:02;;;;;;;3.67;3.10;;;;;;;0.79;100.00;103043.34;4980100;28;20095;-72
2023/01/28 02:34:37;;;;;;;4.97;2.92;;;;;;;0.78;100.00;103036.38;4993108;28;20069;-72
2023/01/28 02:37:12;;;;;;;5.28;2.97;;;;;;;0.78;100.00;103039.88;4995019;28;20085;-73
2023/01/28 02:39:43;;;;;;;4.00;3.17;;;;;;;0.78;100.00;103041.59;4974322;28;20034;-72
2023/01/28 02:42:17;;;;;;;4.90;3.78;;;;;;;0.78;100.00;103034.66;4972043;28;20137;-72
2023/01/28 02:44:43;;;;;;;4.15;3.08;;;;;;;0.78;100.00;103034.66;4976441;28;20516;-72
2023/01/28 02:50:00;;;;;;;3.63;3.17;;;;;;;0.80;100.00;103046.00;4975731;28;20152;-73
2023/01/28 02:55:49;;;;;;;3.72;3.03;;;;;;;0.81;100.00;103036.44;4975235;28;20095;-72
2023/01/28 02:58:23;;;;;;;2.85;2.55;;;;;;;0.81;100.00;103041.66;4976791;28;20158;-73
2023/01/28 03:01:07;;;;;;;3.03;2.53;;;;;;;0.81;100.00;103032.13;4972369;28;20052;-72
2023/01/28 03:03:51;;;;;;;2.83;2.28;;;;;;;0.80;100.00;103029.47;4975009;28;20092;-72
2023/01/28 03:06:21;;;;;;;3.95;2.95;;;;;;;0.81;100.00;103015.56;4976516;28;20046;-72
2023/01/28 03:37:39;;;;;;;4.10;3.30;;;;;;;0.79;100.00;103046.84;4976559;28;20076;-72
2023/01/28 03:40:06;;;;;;;6.32;3.20;;;;;;;0.79;100.00;103054.69;5001846;28;20408;-73
2023/01/28 03:42:32;;;;;;;3.33;2.85;;;;;;;0.78;100.00;103047.69;4973909;28;20036;-73
2023/01/28 03:45:00;;;;;;;3.83;3.10;;;;;;;0.79;100.00;103048.56;4974874;28;20042;-72
2023/01/28 03:47:28;;;;;;;4.07;3.58;;;;;;;0.77;100.00;103039.81;4975952;28;21654;-72
2023/01/28 03:49:54;;;;;;;5.18;3.40;;;;;;;0.77;100.00;103050.25;4977398;28;20065;-72
2023/01/28 03:52:23;;;;;;;5.13;3.55;;;;;;;0.76;100.00;103053.69;4977362;28;22283;-73
2023/01/28 03:54:50;;;;;;;4.10;3.08;;;;;;;0.76;100.00;103048.47;4975797;28;20034;-72
2023/01/28 03:57:21;;;;;;;4.75;3.47;;;;;;;0.74;100.00;103050.13;4974663;28;20034;-73
2023/01/28 03:59:48;;;;;;;4.78;3.70;;;;;;;0.74;100.00;103047.53;5003891;28;20042;-73
2023/01/28 04:02:15;;;;;;;5.07;3.60;;;;;;;0.72;100.00;103037.06;4987711;28;20822;-72
2023/01/28 04:04:41;;;;;;;4.32;3.28;;;;;;;0.72;100.00;103044.00;5003699;28;20038;-73
2023/01/28 04:07:09;;;;;;;5.32;3.40;;;;;;;0.70;100.00;103028.28;5009006;28;20112;-71
2023/01/28 04:09:35;;;;;;;4.35;3.30;;;;;;;0.69;100.00;103038.69;4980348;28;20428;-73
2023/01/28 04:12:01;;;;;;;3.40;3.10;;;;;;;0.66;100.00;103042.97;5004712;28;20038;-72
2023/01/28 04:14:26;;;;;;;4.95;3.90;;;;;;;0.65;100.00;103038.59;4995696;28;21249;-72
2023/01/28 04:16:53;;;;;;;5.00;3.53;;;;;;;0.66;100.00;103026.44;5008671;28;21329;-72
2023/01/28 04:19:20;;;;;;;5.63;3.67;;;;;;;0.65;100.00;103027.28;4981808;28;20090;-72
2023/01/28 04:21:46;;;;;;;5.85;3.78;;;;;;;0.65;100.00;103022.06;4978887;28;20034;-72
2023/01/28 04:24:12;;;;;;;5.15;3.50;;;;;;;0.65;100.00;103025.56;4983780;28;20038;-72
2023/01/28 04:26:37;;;;;;;4.70;3.78;;;;;;;0.65;100.00;103024.69;4982741;28;20658;-74
2023/01/28 04:29:03;;;;;;;4.32;3.42;;;;;;;0.66;100.00;103035.13;5000873;28;20685;-72
2023/01/28 04:31:29;;;;;;;4.90;3.33;;;;;;;0.66;100.00;103036.88;5012519;28;20727;-72
2023/01/28 04:33:55;;;;;;;4.45;3.25;;;;;;;0.64;100.00;103038.53;4979249;28;20515;-72
2023/01/28 04:36:20;;;;;;;5.88;3.42;;;;;;;0.64;100.00;103034.22;5009169;28;20026;-74
2023/01/28 04:38:46;;;;;;;3.75;3.05;;;;;;;0.63;100.00;103034.16;4995606;28;20065;-74
2023/01/28 04:41:11;;;;;;;5.57;2.92;;;;;;;0.60;100.00;103021.91;4979017;28;20093;-72
2023/01/28 04:43:37;;;;;;;4.65;3.50;;;;;;;0.59;100.00;103037.53;4980957;28;20023;-72
2023/01/28 04:46:02;;;;;;;4.35;3.22;;;;;;;0.58;100.00;103028.81;4979425;28;20551;-72
2023/01/28 04:48:30;;;;;;;4.60;3.55;;;;;;;0.58;100.00;103033.13;4979410;28;20044;-73
2023/01/28 04:50:55;;;;;;;4.50;3.15;;;;;;;0.58;100.00;103038.34;4976160;28;20903;-73
2023/01/28 04:53:21;;;;;;;6.13;3.75;;;;;;;0.58;100.00;103033.13;4978387;28;20064;-74
2023/01/28 04:55:46;;;;;;;4.45;3.42;;;;;;;0.59;100.00;103027.97;4993744;28;20035;-74
2023/01/28 04:58:12;;;;;;;4.82;3.53;;;;;;;0.59;100.00;103027.97;4977854;28;20379;-73
2023/01/28 05:00:38;;;;;;;5.82;3.72;;;;;;;0.60;100.00;103036.69;4993935;28;20036;-73
2023/01/28 05:03:03;;;;;;;6.32;3.63;;;;;;;0.61;100.00;103033.22;4976116;28;20035;-73
2023/01/28 05:05:29;;;;;;;4.82;3.72;;;;;;;0.60;100.00;103026.25;4978199;28;20034;-74
2023/01/28 05:07:55;;;;;;;5.22;3.67;;;;;;;0.58;100.00;103028.81;4992561;28;20041;-74
2023/01/28 05:10:21;;;;;;;5.60;3.58;;;;;;;0.58;100.00;103030.50;4980443;28;20042;-73
2023/01/28 05:12:47;;;;;;;4.88;3.80;;;;;;;0.59;100.00;103034.91;4975929;28;21516;-73
2023/01/28 05:15:17;;;;;;;4.90;3.78;;;;;;;0.57;100.00;103037.47;4977868;28;20448;-74
2023/01/28 05:17:43;;;;;;;6.05;3.67;;;;;;;0.58;100.00;103044.44;4978364;28;20478;-73
2023/01/28 05:20:12;;;;;;;7.20;3.97;;;;;;;0.56;100.00;103043.53;4978161;28;20046;-73
2023/01/28 05:22:38;;;;;;;4.47;3.45;;;;;;;0.54;100.00;103030.44;4976996;28;21624;-74
2023/01/28 05:25:05;;;;;;;6.28;3.72;;;;;;;0.53;100.00;103023.44;4975869;28;20129;-73
2023/01/28 05:27:31;;;;;;;6.65;4.18;;;;;;;0.53;100.00;103027.78;4977751;28;20124;-74
2023/01/28 05:29:57;;;;;;;5.18;3.83;;;;;;;0.52;100.00;103023.41;4974721;28;20038;-75
2023/01/28 05:32:23;;;;;;;4.25;3.50;;;;;;;0.47;100.00;103027.56;4980234;28;20050;-74
2023/01/28 05:34:49;;;;;;;4.50;3.60;;;;;;;0.46;100.00;103031.03;4963320;28;20054;-74
2023/01/28 05:37:15;;;;;;;4.75;3.60;;;;;;;0.43;100.00;103012.69;4978738;28;20038;-72
2023/01/28 05:39:40;;;;;;;3.65;2.90;;;;;;;0.42;100.00;103018.75;4979508;28;20046;-73
2023/01/28 05:42:06;;;;;;;4.97;3.50;;;;;;;0.41;100.00;103020.44;4977748;28;20656;-74
2023/01/28 05:44:32;;;;;;;6.10;3.85;;;;;;;0.40;100.00;103018.69;4975778;28;20030;-73
2023/01/28 05:46:57;;;;;;;5.45;3.78;;;;;;;0.40;100.00;103023.91;4974709;28;20030;-73
2023/01/28 05:49:25;;;;;;;6.50;4.28;;;;;;;0.37;100.00;103022.06;5008786;28;20038;-73
2023/01/28 05:51:51;;;;;;;6.15;4.28;;;;;;;0.36;100.00;103017.69;4982825;28;20038;-73
2023/01/28 05:54:17;;;;;;;6.97;3.97;;;;;;;0.35;100.00;103021.16;5008748;28;20045;-73
2023/01/28 05:56:42;;;;;;;6.07;4.30;;;;;;;0.34;100.00;103014.16;5008021;28;20026;-73
2023/01/28 05:59:10;;;;;;;4.90;3.72;;;;;;;0.33;100.00;103020.19;5008918;28;20037;-73
2023/01/28 06:01:35;;;;;;;6.57;4.15;;;;;;;0.32;100.00;103010.59;4978807;28;20563;-73
2023/01/28 06:04:01;;;;;;;5.18;4.10;;;;;;;0.32;100.00;103018.44;4981166;28;20038;-73
2023/01/28 06:06:26;;;;;;;6.20;4.20;;;;;;;0.33;100.00;103022.78;4996929;28;20034;-73
2023/01/28 06:08:52;;;;;;;6.95;3.88;;;;;;;0.31;100.00;103016.66;4979314;28;20371;-73
2023/01/28 06:11:17;;;;;;;6.72;4.30;;;;;;;0.29;100.00;103023.56;4978893;28;20029;-73
2023/01/28 06:13:43;;;;;;;6.07;4.20;;;;;;;0.29;100.00;103025.25;4978883;28;20057;-73
2023/01/28 06:16:11;;;;;;;6.38;4.45;;;;;;;0.27;100.00;103025.19;4982446;28;20297;-73
2023/01/28 06:18:37;;;;;;;6.88;4.25;;;;;;;0.26;100.00;103021.72;4983230;28;20049;-73
2023/01/28 06:21:03;;;;;;;6.72;4.13;;;;;;;0.24;100.00;103023.41;4976591;28;20683;-74
2023/01/28 06:23:28;;;;;;;4.93;3.88;;;;;;;0.23;100.00;103020.75;4981217;28;20156;-74
2023/01/28 06:25:55;;;;;;;5.97;4.18;;;;;;;0.23;100.00;103026.81;4983846;28;20034;-74
2023/01/28 06:28:20;;;;;;;6.55;4.57;;;;;;;0.22;100.00;103022.44;4999534;28;20099;-74
2023/01/28 06:30:55;;;;;;;6.50;4.60;;;;;;;0.21;100.00;103017.22;4980217;28;20054;-74
2023/01/28 06:33:21;;;;;;;6.65;4.50;;;;;;;0.21;100.00;103017.22;4990799;28;20140;-74
2023/01/28 06:35:47;;;;;;;8.10;4.90;;;;;;;0.20;100.00;103025.84;4978133;28;20038;-74
2023/01/28 06:38:12;;;;;;;11.52;7.22;;;;;;;0.18;100.00;103023.22;4976373;28;20026;-74
2023/01/28 06:40:38;;;;;;;9.10;4.90;;;;;;;0.19;100.00;103029.28;4975562;28;20580;-74
2023/01/28 06:43:05;;;;;;;6.15;4.60;;;;;;;0.18;100.00;103033.63;5001832;28;20421;-73
2023/01/28 06:45:33;;;;;;;6.35;4.80;;;;;;;0.18;100.00;103033.63;4992894;28;20042;-74
2023/01/28 06:47:58;;;;;;;6.25;4.47;;;;;;;0.17;100.00;103037.06;4992374;28;20126;-74
2023/01/28 06:50:24;;;;;;;6.97;5.20;;;;;;;0.17;100.00;103046.59;4976865;28;20042;-74
2023/01/28 06:52:50;;;;;;;7.28;4.35;;;;;;;0.15;100.00;103043.06;4968261;28;20030;-74
2023/01/28 06:55:16;;;;;;;6.75;4.60;;;;;;;0.12;100.00;103038.63;4971862;28;20567;-74
2023/01/28 06:57:41;;;;;;;6.80;4.35;;;;;;;0.09;100.00;103043.72;4971950;28;20034;-74
2023/01/28 07:00:09;;;;;;;6.55;4.57;;;;;;;0.04;100.00;103043.56;4974016;28;20121;-74
2023/01/28 07:02:37;;;;;;;7.47;4.55;;;;;;;-0.02;100.00;103056.38;4977920;28;20048;-74
2023/01/28 07:05:03;;;;;;;7.95;4.75;;;;;;;-0.06;100.00;103049.31;4975183;28;20042;-74
2023/01/28 07:07:29;;;;;;;8.48;5.18;;;;;;;-0.10;100.00;103037.91;4971533;28;20041;-74
2023/01/28 07:09:55;;;;;;;9.30;4.95;;;;;;;-0.16;100.00;103040.31;4988573;28;20049;-73
2023/01/28 07:12:20;;;;;;;8.73;5.63;;;;;;;-0.21;100.00;103049.66;4961308;28;20120;-74
2023/01/28 07:14:46;;;;;;;9.05;5.40;;;;;;;-0.30;100.00;103050.22;4968801;28;20038;-73
2023/01/28 07:17:11;;;;;;;9.65;5.57;;;;;;;-0.32;100.00;103057.97;4978247;28;20123;-74
2023/01/28 07:19:44;;;;;;;7.65;4.80;;;;;;;-0.36;100.00;103044.78;4979427;28;20036;-74
2023/01/28 07:22:09;;;;;;;7.13;5.32;;;;;;;-0.41;100.00;103044.63;4976010;28;20054;-73
2023/01/28 07:24:35;;;;;;;8.38;4.82;;;;;;;-0.44;100.00;103047.16;4977369;28;20398;-74
2023/01/28 07:27:00;;;;;;;10.02;6.20;;;;;;;-0.51;100.00;103047.72;4978441;28;20042;-74
2023/01/28 07:29:26;;;;;;;10.32;5.63;;;;;;;-0.56;100.00;103052.75;5007547;28;20057;-74
2023/01/28 07:31:51;;;;;;;9.13;5.55;;;;;;;-0.61;100.00;103051.72;5009429;28;20046;-74
2023/01/28 07:34:17;;;;;;;8.15;5.57;;;;;;;-0.65;100.00;103047.22;4976361;28;20080;-75
2023/01/28 07:36:43;;;;;;;10.48;6.28;;;;;;;-0.67;100.00;103041.09;4976470;28;20797;-74
2023/01/28 07:39:08;;;;;;;10.55;7.10;;;;;;;-0.73;100.00;103050.44;4975077;28;20311;-74
2023/01/28 07:41:34;;;;;;;8.57;5.85;;;;;;;-0.76;100.00;103052.03;4994793;28;20636;-74
2023/01/28 07:43:59;;;;;;;10.77;6.15;;;;;;;-0.78;100.00;103067.59;4980283;28;20042;-74
2023/01/28 07:46:25;;;;;;;12.65;6.20;;;;;;;-0.83;100.00;103062.22;4976593;28;20054;-74
2023/01/28 07:48:51;;;;;;;11.63;6.53;;;;;;;-0.83;100.00;103061.31;4973760;28;20052;-75
2023/01/28 07:51:16;;;;;;;10.40;6.35;;;;;;;-0.86;100.00;103074.22;4977300;28;20037;-75
2023/01/28 07:53:42;;;;;;;13.85;8.15;;;;;;;-0.86;100.00;103076.81;4973828;28;20046;-75
2023/01/28 07:56:07;;;;;;;13.90;7.72;;;;;;;-0.86;100.00;103084.63;4978303;28;20034;-74
2023/01/28 07:58:33;;;;;;;13.43;8.18;;;;;;;-0.88;100.00;103073.28;4976065;28;20464;-74
2023/01/28 08:00:59;;;;;;;13.73;7.90;;;;;;;-0.88;100.00;103086.28;4973635;28;20054;-74
2023/01/28 08:03:26;;;;;;;10.77;6.68;;;;;;;-0.89;100.00;103097.50;5006785;28;20028;-75
2023/01/28 08:05:54;;;;;;;9.88;6.30;;;;;;;-0.91;100.00;103091.34;4991289;28;20042;-75
2023/01/28 08:08:21;;;;;;;10.32;5.47;;;;;;;-0.90;100.00;103088.81;5006464;28;20603;-74
2023/01/28 08:10:46;;;;;;;10.07;5.65;;;;;;;-0.89;100.00;103092.28;4973510;28;20039;-74
2023/01/28 08:13:13;;;;;;;9.82;5.38;;;;;;;-0.89;100.00;103095.78;4979784;28;20481;-74
2023/01/28 08:15:40;;;;;;;8.82;5.30;;;;;;;-0.86;100.00;103100.22;4973508;28;20124;-74
2023/01/28 08:18:07;;;;;;;10.18;5.85;;;;;;;-0.85;100.00;103102.91;5004615;28;20038;-74
2023/01/28 08:20:56;;;;;;;9.77;5.55;;;;;;;-0.80;100.00;103115.19;4985315;28;20080;-74
2023/01/28 08:23:22;;;;;;;9.43;5.72;;;;;;;-0.80;100.00;103113.47;4991610;28;20045;-73
2023/01/28 08:25:48;;;;;;;11.48;6.03;;;;;;;-0.78;100.00;103111.81;4969541;28;20054;-73
2023/01/28 08:28:15;;;;;;;9.65;5.95;;;;;;;-0.75;100.00;103111.06;4984341;28;20038;-73
2023/01/28 08:30:41;;;;;;;8.05;5.40;;;;;;;-0.74;100.00;103118.03;4983366;28;20050;-73
2023/01/28 08:33:08;;;;;;;9.43;5.65;;;;;;;-0.75;100.00;103116.25;5000942;28;20088;-74
2023/01/28 08:35:34;;;;;;;10.80;6.00;;;;;;;-0.73;100.00;103128.50;4997647;28;20054;-74
2023/01/28 08:38:01;;;;;;;8.68;5.80;;;;;;;-0.73;100.00;103128.50;4969645;28;20046;-73
2023/01/28 08:40:27;;;;;;;12.63;5.88;;;;;;;-0.73;100.00;103133.69;4970375;28;20571;-73
2023/01/28 08:42:53;;;;;;;10.70;6.22;;;;;;;-0.71;100.00;103142.44;4971118;28;20734;-74
2023/01/28 08:45:21;;;;;;;10.35;6.13;;;;;;;-0.70;100.00;103141.59;4968825;28;20062;-73
2023/01/28 08:48:08;;;;;;;10.55;6.05;;;;;;;-0.69;100.00;103132.97;4983827;28;20418;-73
2023/01/28 08:50:36;;;;;;;10.30;5.80;;;;;;;-0.67;100.00;103133.03;4969859;28;20710;-73
2023/01/28 08:53:04;;;;;;;9.88;6.18;;;;;;;-0.68;100.00;103123.47;4964152;28;20607;-74
2023/01/28 08:55:30;;;;;;;11.10;6.20;;;;;;;-0.66;100.00;103118.31;4965629;28;20034;-74
2023/01/28 08:57:56;;;;;;;10.73;6.43;;;;;;;-0.65;100.00;103125.28;4979748;28;20525;-73
2023/01/28 09:00:22;;;;;;;9.00;5.40;;;;;;;-0.62;100.00;103125.41;4996222;28;20474;-73
2023/01/28 09:02:52;;;;;;;13.77;7.50;;;;;;;-0.60;100.00;103122.03;5003422;28;20030;-74
2023/01/28 09:05:18;;;;;;;13.05;7.40;;;;;;;-0.59;100.00;103130.75;4973569;28;20088;-73
2023/01/28 09:07:43;;;;;;;12.65;7.28;;;;;;;-0.55;100.00;103137.81;4974203;28;20046;-73
2023/01/28 09:10:10;;;;;;;17.00;8.45;;;;;;;-0.52;100.00;103132.75;4972730;28;20144;-73
2023/01/28 09:12:36;;;;;;;12.60;6.68;;;;;;;-0.48;100.00;103138.94;4975065;28;20052;-73
2023/01/28 09:15:01;;;;;;;11.25;7.00;;;;;;;-0.46;100.00;103132.97;4989002;28;20030;-73
2023/01/28 09:17:27;;;;;;;12.20;6.78;;;;;;;-0.43;100.00;103135.69;5004365;28;20037;-73
2023/01/28 09:19:53;;;;;;;10.85;6.50;;;;;;;-0.42;100.00;103145.25;4973083;28;21286;-73
2023/01/28 09:22:18;;;;;;;9.88;6.03;;;;;;;-0.38;100.00;103140.19;4974437;28;20041;-73
2023/01/28 09:24:44;;;;;;;10.18;6.10;;;;;;;-0.37;100.00;103128.94;4974850;28;20042;-73
2023/01/28 09:27:09;;;;;;;12.45;6.82;;;;;;;-0.33;100.00;103138.63;4975627;28;20041;-73
2023/01/28 09:29:36;;;;;;;12.20;6.05;;;;;;;-0.32;100.00;103128.25;4975028;28;21746;-73
2023/01/28 09:32:02;;;;;;;13.05;6.97;;;;;;;-0.29;100.00;103130.09;5002593;28;20058;-73
2023/01/28 09:34:28;;;;;;;10.75;5.88;;;;;;;-0.25;100.00;103134.59;5003983;28;20058;-73
2023/01/28 09:36:54;;;;;;;9.05;5.85;;;;;;;-0.21;100.00;103131.25;4985247;28;20065;-73
2023/01/28 09:39:19;;;;;;;9.90;5.70;;;;;;;-0.13;100.00;103149.78;5003698;28;20038;-73
2023/01/28 09:42:03;;;;;;;9.07;5.53;;;;;;;-0.05;100.00;103139.63;5003770;28;20751;-73
2023/01/28 09:44:57;;;;;;;9.57;5.13;;;;;;;0.04;100.00;103134.75;4987870;28;20022;-73
2023/01/28 09:47:27;;;;;;;9.15;5.60;;;;;;;0.16;100.00;103129.06;4974254;28;20065;-73
2023/01/28 09:49:55;;;;;;;9.98;5.45;;;;;;;0.26;100.00;103122.47;4988003;28;20058;-73
2023/01/28 09:52:24;;;;;;;9.35;5.97;;;;;;;0.39;100.00;103123.78;4974979;28;20146;-73
2023/01/28 09:54:55;;;;;;;11.15;6.05;;;;;;;0.51;100.00;103138.94;5001439;28;20048;-73
2023/01/28 09:57:23;;;;;;;10.52;6.13;;;;;;;0.63;100.00;103141.97;5000358;28;20901;-73
2023/01/28 09:59:48;;;;;;;11.40;5.97;;;;;;;0.72;100.00;103132.66;4982843;28;20112;-73
2023/01/28 10:02:36;;;;;;;10.15;5.85;;;;;;;0.82;100.00;103137.34;4966647;28;20054;-73
2023/01/28 10:05:13;;;;;;;9.85;5.57;;;;;;;0.92;100.00;103151.53;4985102;28;20440;-73
2023/01/28 10:08:05;;;;;;;11.82;5.95;;;;;;;0.99;100.00;103137.88;4984942;28;20037;-73
2023/01/28 10:10:36;;;;;;;9.57;5.00;;;;;;;1.06;100.00;103125.91;4972585;28;20088;-73
2023/01/28 10:13:20;;;;;;;9.68;5.50;;;;;;;1.16;100.00;103114.03;4969291;28;20046;-73
2023/01/28 10:15:55;;;;;;;10.63;5.43;;;;;;;1.21;100.00;103091.56;4969855;28;20100;-75
2023/01/28 10:18:41;;;;;;;8.65;5.90;;;;;;;1.25;100.00;103080.38;5002725;28;20038;-75
2023/01/28 10:21:18;;;;;;;8.07;5.38;;;;;;;1.28;100.00;103082.19;5002186;28;20037;-74
2023/01/28 10:23:54;;;;;;;9.63;5.45;;;;;;;1.34;100.00;103070.22;4974236;28;20039;-74
2023/01/28 10:26:33;;;;;;;9.32;5.10;;;;;;;1.45;100.00;103062.69;4974067;28;20046;-75
2023/01/28 10:29:03;;;;;;;8.55;5.18;;;;;;;1.54;100.00;103067.28;5001507;28;20050;-74
2023/01/28 10:31:33;;;;;;;7.68;4.55;;;;;;;1.58;100.00;103063.91;4974757;28;20125;-75
2023/01/28 10:33:58;;;;;;;10.27;5.43;;;;;;;1.65;100.00;103046.69;5003060;28;20121;-75
2023/01/28 10:36:24;;;;;;;10.05;5.57;;;;;;;1.69;100.00;103045.91;4975767;28;20054;-75
2023/01/28 10:38:50;;;;;;;8.90;5.10;;;;;;;1.73;100.00;103033.81;4972983;28;20166;-74
2023/01/28 10:41:19;;;;;;;8.05;4.78;;;;;;;1.75;100.00;103022.56;4974797;28;20648;-75
2023/01/28 10:43:46;;;;;;;8.57;4.88;;;;;;;1.83;100.00;103022.78;4979436;28;20124;-74
2023/01/28 10:46:15;;;;;;;9.73;5.13;;;;;;;1.90;100.00;103026.41;5005019;28;21416;-74
2023/01/28 10:49:03;;;;;;;7.35;4.70;;;;;;;1.95;100.00;103027.44;4975311;28;20112;-74
2023/01/28 10:51:36;;;;;;;8.95;5.50;;;;;;;2.05;100.00;103022.47;4992937;28;20319;-74
2023/01/28 10:54:03;;;;;;;9.18;5.00;;;;;;;2.11;100.00;103033.03;5007232;28;20073;-74
2023/01/28 10:56:30;;;;;;;6.80;4.60;;;;;;;2.14;100.00;103038.38;4963749;28;20130;-74
2023/01/28 10:59:00;;;;;;;9.77;5.28;;;;;;;2.16;100.00;103034.03;4978315;28;20574;-74
2023/01/28 11:01:50;;;;;;;8.55;4.80;;;;;;;2.21;100.00;103035.06;4976243;28;20050;-74
2023/01/28 11:04:29;;;;;;;8.85;5.13;;;;;;;2.28;100.00;103036.97;4978395;28;20044;-74
2023/01/28 11:06:54;;;;;;;8.13;4.78;;;;;;;2.31;100.00;103047.47;5006294;28;20389;-74
2023/01/28 11:09:22;;;;;;;8.50;4.43;;;;;;;2.34;100.00;103053.66;5005967;28;20046;-74
2023/01/28 11:11:48;;;;;;;7.10;4.28;;;;;;;2.36;100.00;103049.34;4990442;28;20049;-75
2023/01/28 11:14:25;;;;;;;8.65;5.00;;;;;;;2.42;100.00;103062.56;4977769;28;20042;-75
2023/01/28 11:16:53;;;;;;;9.32;5.15;;;;;;;2.46;100.00;103073.97;4978382;28;20048;-74
2023/01/28 11:19:20;;;;;;;9.05;4.97;;;;;;;2.47;100.00;103074.03;4978444;28;20065;-75
2023/01/28 11:21:52;;;;;;;7.32;4.68;;;;;;;2.53;100.00;103079.41;5004701;28;20120;-75
2023/01/28 11:24:30;;;;;;;5.43;3.58;;;;;;;2.58;100.00;103080.38;4978175;28;20088;-75
2023/01/28 11:26:57;;;;;;;8.93;4.97;;;;;;;2.61;100.00;103078.72;4978199;28;20033;-75
2023/01/28 11:29:30;;;;;;;7.80;4.93;;;;;;;2.65;100.00;103072.69;4999915;28;20045;-75
2023/01/28 11:31:56;;;;;;;4.45;3.28;;;;;;;2.66;100.00;103059.66;4978126;28;20756;-75
2023/01/28 11:34:25;;;;;;;7.53;4.22;;;;;;;2.72;100.00;103053.66;4991987;28;20063;-75
2023/01/28 11:36:54;;;;;;;8.50;4.45;;;;;;;2.77;100.00;103044.19;4971096;28;20175;-75
2023/01/28 11:39:27;;;;;;;9.25;4.18;;;;;;;2.81;100.00;103042.53;4973815;28;20145;-74
2023/01/28 11:41:52;;;;;;;6.07;3.65;;;;;;;2.82;100.00;103036.44;4983940;28;20129;-74
2023/01/28 11:44:21;;;;;;;8.10;5.18;;;;;;;2.82;100.00;103023.38;4981292;28;20030;-74
2023/01/28 11:46:56;;;;;;;9.18;4.93;;;;;;;2.82;100.00;103028.59;5006964;28;20042;-74
2023/01/28 11:49:44;;;;;;;9.23;5.13;;;;;;;2.83;100.00;103023.41;4982469;28;20049;-74
2023/01/28 11:52:31;;;;;;;7.75;4.32;;;;;;;2.84;100.00;103022.53;4997253;28;20125;-74
2023/01/28 11:55:20;;;;;;;7.25;4.30;;;;;;;2.88;100.00;103023.50;4979703;28;20117;-74
2023/01/28 11:58:17;;;;;;;8.73;5.10;;;;;;;2.95;100.00;103021.91;4981877;28;20320;-74
2023/01/28 12:00:48;;;;;;;7.32;4.05;;;;;;;3.04;100.00;103026.47;4981420;28;20042;-74
2023/01/28 12:03:30;;;;;;;10.18;4.78;;;;;;;3.10;100.00;103026.56;4980643;28;20038;-74